Time;durP1;ratioP1;P1;durP2;ratioP2;P2;SDS_P1;SDS_P2;PMS_P1;PMS_P2;Temp;Humidity;BMP_temperature;BMP_pressure;BME280_temperature;BME280_humidity;BME280_pressure;Samples;Min_cycle;Max_cycle;Signal;HPM_P1;HPM_P2
2021/03/14 00:00:27;;;;;;;12.77;2.70;;;4.40;90.60;;;;;;5093448;28;20182;-86
2021/03/14 00:03:00;;;;;;;11.37;3.10;;;4.50;90.50;;;;;;5075537;28;20196;-87
2021/03/14 00:05:34;;;;;;;11.47;2.43;;;4.40;90.90;;;;;;5075386;28;20181;-87
2021/03/14 00:08:15;;;;;;;18.00;2.93;;;4.40;90.90;;;;;;5075095;28;20197;-86
2021/03/14 00:10:51;;;;;;;10.77;2.33;;;4.40;91.20;;;;;;5075709;28;20516;-86
2021/03/14 00:13:26;;;;;;;11.37;2.23;;;4.40;91.40;;;;;;5093114;28;20217;-87
2021/03/14 00:16:00;;;;;;;14.97;3.97;;;4.40;91.60;;;;;;5075237;28;20177;-87
2021/03/14 00:18:34;;;;;;;10.93;2.40;;;4.40;91.80;;;;;;5075240;28;20642;-87
2021/03/14 00:21:07;;;;;;;5.00;1.30;;;4.40;91.90;;;;;;5075116;28;20202;-87
2021/03/14 00:23:37;;;;;;;13.73;1.40;;;4.30;91.50;;;;;;5075454;28;20689;-87
2021/03/14 00:26:05;;;;;;;9.80;2.07;;;4.30;91.70;;;;;;5075143;28;20214;-87
2021/03/14 00:28:35;;;;;;;5.90;1.37;;;4.30;91.70;;;;;;5075082;28;20228;-88
2021/03/14 00:31:07;;;;;;;7.63;1.10;;;4.20;91.50;;;;;;5075084;28;20173;-88
2021/03/14 00:33:34;;;;;;;7.40;1.40;;;4.20;91.60;;;;;;5075721;28;20196;-88
2021/03/14 00:36:10;;;;;;;1.40;1.07;;;4.20;91.80;;;;;;5075145;28;20549;-86
2021/03/14 00:38:45;;;;;;;9.57;1.60;;;4.20;91.90;;;;;;5093317;28;20165;-86
2021/03/14 00:41:17;;;;;;;3.93;1.10;;;4.20;92.00;;;;;;5075753;28;20619;-86
2021/03/14 00:43:51;;;;;;;2.60;0.93;;;4.10;91.90;;;;;;5092895;28;20201;-86
2021/03/14 00:46:25;;;;;;;6.67;1.40;;;4.10;92.00;;;;;;5074838;28;20179;-86
2021/03/14 00:48:56;;;;;;;5.77;1.70;;;4.10;92.00;;;;;;5092911;28;20295;-86
2021/03/14 00:51:27;;;;;;;3.37;1.30;;;4.20;91.70;;;;;;5092971;28;20245;-87
2021/03/14 00:54:01;;;;;;;7.97;1.37;;;4.20;91.90;;;;;;5092847;28;20193;-86
2021/03/14 00:56:34;;;;;;;9.43;2.20;;;4.20;92.10;;;;;;5074876;28;20593;-88
2021/03/14 00:59:11;;;;;;;6.03;1.50;;;4.20;92.00;;;;;;5092863;28;20185;-88
2021/03/14 01:01:40;;;;;;;7.07;2.00;;;4.20;91.90;;;;;;5092925;28;20194;-88
2021/03/14 01:04:14;;;;;;;8.53;1.80;;;4.30;92.00;;;;;;5074776;28;20206;-88
2021/03/14 01:06:47;;;;;;;19.20;3.13;;;4.30;92.30;;;;;;5075828;28;20605;-88
2021/03/14 01:09:17;;;;;;;11.87;3.10;;;4.20;92.60;;;;;;5079036;28;20182;-88
2021/03/14 01:11:50;;;;;;;7.30;1.87;;;4.30;92.50;;;;;;5078458;28;20177;-88
2021/03/14 01:14:21;;;;;;;5.20;1.90;;;4.30;92.20;;;;;;5078339;28;20262;-88
2021/03/14 01:16:51;;;;;;;4.33;1.60;;;4.30;91.80;;;;;;5078225;28;20209;-88
2021/03/14 01:19:23;;;;;;;11.43;2.57;;;4.20;91.80;;;;;;5078777;28;20231;-88
2021/03/14 01:21:50;;;;;;;9.23;2.03;;;4.20;91.50;;;;;;5078374;28;20264;-88
2021/03/14 01:24:23;;;;;;;8.80;2.27;;;4.20;91.40;;;;;;5096321;28;20194;-89
2021/03/14 01:26:57;;;;;;;18.57;3.40;;;4.20;91.60;;;;;;5078056;28;20210;-87
2021/03/14 01:29:28;;;;;;;15.00;3.10;;;4.20;91.70;;;;;;5096309;28;20297;-87
2021/03/14 01:31:57;;;;;;;11.30;2.73;;;4.30;92.00;;;;;;5078796;28;20195;-86
2021/03/14 01:34:27;;;;;;;14.90;2.60;;;4.30;91.10;;;;;;5077839;28;20177;-87
2021/03/14 01:36:58;;;;;;;11.57;2.67;;;4.30;91.20;;;;;;5077825;28;20710;-87
2021/03/14 01:39:29;;;;;;;10.40;2.87;;;4.20;91.10;;;;;;5078115;28;20180;-87
2021/03/14 01:42:01;;;;;;;14.27;2.93;;;4.20;91.20;;;;;;5077781;28;20641;-87
2021/03/14 01:44:31;;;;;;;12.67;2.97;;;4.20;91.60;;;;;;5095862;28;20178;-87
2021/03/14 01:47:05;;;;;;;18.93;3.10;;;4.20;91.50;;;;;;5077779;28;20267;-87
2021/03/14 01:49:31;;;;;;;14.33;3.73;;;4.20;91.70;;;;;;5077748;28;20185;-87
2021/03/14 01:52:04;;;;;;;9.10;2.90;;;4.20;91.60;;;;;;5077698;28;20641;-87
2021/03/14 01:54:36;;;;;;;17.13;4.07;;;4.20;91.70;;;;;;5095958;28;20245;-87
2021/03/14 01:57:04;;;;;;;26.47;4.40;;;4.20;91.80;;;;;;5077517;28;20181;-88
2021/03/14 01:59:37;;;;;;;22.23;4.23;;;4.30;92.00;;;;;;5077592;28;20181;-87
2021/03/14 02:02:05;;;;;;;11.50;3.53;;;4.30;92.30;;;;;;5077513;28;20267;-88
2021/03/14 02:04:38;;;;;;;7.90;2.40;;;4.30;92.50;;;;;;5077385;28;20216;-88
2021/03/14 02:07:10;;;;;;;8.47;3.00;;;4.30;92.50;;;;;;5095518;28;20219;-87
2021/03/14 02:09:48;;;;;;;15.20;4.23;;;4.40;92.20;;;;;;5077329;28;20268;-87
2021/03/14 02:12:24;;;;;;;13.10;3.93;;;4.40;92.10;;;;;;5077545;28;20619;-87
2021/03/14 02:15:00;;;;;;;20.03;4.43;;;4.40;91.80;;;;;;5077330;28;20181;-87
2021/03/14 02:17:40;;;;;;;19.70;4.23;;;4.40;91.70;;;;;;5095298;28;20602;-87
2021/03/14 02:20:17;;;;;;;10.57;2.70;;;4.50;91.40;;;;;;5077089;28;20669;-87
2021/03/14 02:22:49;;;;;;;11.87;3.30;;;4.50;91.20;;;;;;5076938;28;20200;-87
2021/03/14 02:25:30;;;;;;;24.63;3.20;;;4.50;91.20;;;;;;5077077;28;20181;-87
2021/03/14 02:28:06;;;;;;;18.90;4.83;;;4.50;91.20;;;;;;5076859;28;20758;-87
2021/03/14 02:30:37;;;;;;;24.73;3.87;;;4.50;91.30;;;;;;5095042;28;20524;-87
2021/03/14 02:33:11;;;;;;;21.87;3.60;;;4.50;91.00;;;;;;5077287;28;20688;-87
2021/03/14 02:35:43;;;;;;;10.97;3.33;;;4.50;90.20;;;;;;5095024;28;20184;-87
2021/03/14 02:38:11;;;;;;;10.73;3.83;;;4.50;89.80;;;;;;5076752;28;20184;-87
2021/03/14 02:40:41;;;;;;;14.43;3.20;;;4.40;89.50;;;;;;5076814;28;20178;-87
2021/03/14 02:43:14;;;;;;;13.73;3.40;;;4.40;89.10;;;;;;5076586;28;20676;-87
2021/03/14 02:45:44;;;;;;;7.17;2.87;;;4.40;89.00;;;;;;5095127;28;20172;-87
2021/03/14 02:48:21;;;;;;;11.20;3.50;;;4.40;88.80;;;;;;5076552;28;20200;-87
2021/03/14 02:50:51;;;;;;;10.47;3.10;;;4.30;89.00;;;;;;5094911;28;20534;-87
2021/03/14 02:53:21;;;;;;;12.53;3.73;;;4.30;88.80;;;;;;5094551;28;20203;-87
2021/03/14 02:55:53;;;;;;;10.93;2.90;;;4.30;89.10;;;;;;5076391;28;20183;-87
2021/03/14 02:58:22;;;;;;;3.17;2.20;;;4.30;89.00;;;;;;5076333;28;20348;-87
2021/03/14 03:00:55;;;;;;;11.53;3.03;;;4.30;88.40;;;;;;5076383;28;20180;-87
2021/03/14 03:03:30;;;;;;;12.13;3.63;;;4.30;88.80;;;;;;5094293;28;20241;-87
2021/03/14 03:06:02;;;;;;;10.83;3.23;;;4.30;88.80;;;;;;5076442;28;20177;-87
2021/03/14 03:08:37;;;;;;;11.20;2.77;;;4.30;89.10;;;;;;5076030;28;20233;-87
2021/03/14 03:11:11;;;;;;;11.07;2.93;;;4.30;88.50;;;;;;5076226;28;20212;-88
2021/03/14 03:13:44;;;;;;;14.83;3.23;;;4.30;88.80;;;;;;5094084;28;20609;-87
2021/03/14 03:16:15;;;;;;;14.97;3.43;;;4.40;88.50;;;;;;5075980;28;20649;-88
2021/03/14 03:18:51;;;;;;;16.67;3.70;;;4.30;88.50;;;;;;5075994;28;20651;-87
2021/03/14 03:21:26;;;;;;;9.30;2.80;;;4.40;88.20;;;;;;5075904;28;20643;-87
2021/03/14 03:23:58;;;;;;;8.43;2.87;;;4.50;88.30;;;;;;5093972;28;20196;-87
2021/03/14 03:26:31;;;;;;;12.73;3.00;;;4.60;87.10;;;;;;5075880;28;20272;-87
2021/03/14 03:29:06;;;;;;;13.33;3.17;;;4.60;86.90;;;;;;5075857;28;20200;-87
2021/03/14 03:31:39;;;;;;;7.07;2.13;;;4.60;87.10;;;;;;5075117;28;20204;-87
2021/03/14 03:34:17;;;;;;;12.70;2.43;;;4.60;87.70;;;;;;5075712;28;20205;-87
2021/03/14 03:36:51;;;;;;;5.83;3.03;;;4.60;87.70;;;;;;5075677;28;20255;-87
2021/03/14 03:39:26;;;;;;;10.87;3.40;;;4.60;87.80;;;;;;5075733;28;20182;-87
2021/03/14 03:42:06;;;;;;;11.33;3.43;;;4.60;88.00;;;;;;5093624;28;20165;-87
2021/03/14 03:44:38;;;;;;;18.03;4.23;;;4.60;88.30;;;;;;5075795;28;20635;-87
2021/03/14 03:47:15;;;;;;;10.83;3.70;;;4.60;88.00;;;;;;5075590;28;20181;-87
2021/03/14 03:49:46;;;;;;;11.87;3.70;;;4.60;87.80;;;;;;5076107;28;20649;-87
2021/03/14 03:52:21;;;;;;;11.70;3.93;;;4.70;87.60;;;;;;5075560;28;20177;-87
2021/03/14 03:54:55;;;;;;;10.10;3.03;;;4.70;87.60;;;;;;5093623;28;20180;-88
2021/03/14 03:57:26;;;;;;;8.60;2.60;;;4.70;87.60;;;;;;5075946;28;20189;-88
2021/03/14 03:59:58;;;;;;;7.80;2.63;;;4.80;87.60;;;;;;5075505;28;20183;-87
2021/03/14 04:02:37;;;;;;;17.87;4.10;;;4.70;87.40;;;;;;5093697;28;20197;-87
2021/03/14 04:05:14;;;;;;;14.10;2.43;;;4.80;87.50;;;;;;5075402;28;20599;-88
2021/03/14 04:07:50;;;;;;;12.27;3.00;;;4.80;87.50;;;;;;5075219;28;20205;-87
2021/03/14 04:10:27;;;;;;;19.33;4.43;;;4.80;87.70;;;;;;5093380;28;20543;-88
2021/03/14 04:12:54;;;;;;;13.80;3.57;;;4.80;88.00;;;;;;5075184;28;20218;-87
2021/03/14 04:15:29;;;;;;;15.67;3.53;;;4.80;87.60;;;;;;5093351;28;20181;-87
2021/03/14 04:18:02;;;;;;;10.40;3.23;;;4.80;87.90;;;;;;5093344;28;20166;-88
2021/03/14 04:20:37;;;;;;;17.13;4.03;;;4.90;88.10;;;;;;5075152;28;20700;-87
2021/03/14 04:23:13;;;;;;;18.33;3.83;;;4.80;88.30;;;;;;5075267;28;20734;-87
2021/03/14 04:25:49;;;;;;;20.70;4.50;;;4.80;88.40;;;;;;5075171;28;20178;-88
2021/03/14 04:28:16;;;;;;;26.87;3.70;;;4.90;88.50;;;;;;5093236;28;20277;-88
2021/03/14 04:30:50;;;;;;;14.57;3.93;;;4.90;88.40;;;;;;5075162;28;20172;-87
2021/03/14 04:33:24;;;;;;;18.53;4.70;;;4.90;88.20;;;;;;5075027;28;20204;-87
2021/03/14 04:36:00;;;;;;;16.67;3.10;;;5.00;87.90;;;;;;5093197;28;20172;-87
2021/03/14 04:38:36;;;;;;;17.40;4.40;;;5.00;88.20;;;;;;5075042;28;20182;-87
2021/03/14 04:41:10;;;;;;;18.33;4.73;;;5.00;88.30;;;;;;5093298;28;20741;-87
2021/03/14 04:43:45;;;;;;;13.47;3.17;;;4.90;88.20;;;;;;5079039;28;20643;-87
2021/03/14 04:46:19;;;;;;;20.87;4.43;;;5.00;88.60;;;;;;5079060;28;20238;-87
2021/03/14 04:48:56;;;;;;;35.27;4.70;;;5.00;88.50;;;;;;5096895;28;20238;-88
2021/03/14 04:51:37;;;;;;;23.90;4.83;;;5.00;88.60;;;;;;5078812;28;20181;-87
2021/03/14 04:54:04;;;;;;;22.77;4.43;;;5.00;88.80;;;;;;5079323;28;20194;-87
2021/03/14 04:56:39;;;;;;;26.13;4.80;;;5.00;89.20;;;;;;5096869;28;20171;-87
2021/03/14 04:59:12;;;;;;;23.27;5.50;;;5.00;89.50;;;;;;5078634;28;20591;-88
2021/03/14 05:01:48;;;;;;;24.90;5.03;;;5.00;89.70;;;;;;5078877;28;20207;-87
2021/03/14 05:04:23;;;;;;;24.07;4.63;;;5.00;89.80;;;;;;5078436;28;20198;-88
2021/03/14 05:06:55;;;;;;;25.20;4.70;;;5.00;89.70;;;;;;5078376;28;20189;-87
2021/03/14 05:09:31;;;;;;;18.30;4.17;;;5.00;89.30;;;;;;5078494;28;20181;-87
2021/03/14 05:12:05;;;;;;;23.23;4.53;;;5.10;89.00;;;;;;5078452;28;20165;-87
2021/03/14 05:14:37;;;;;;;20.60;4.90;;;5.10;88.80;;;;;;5078368;28;20180;-88
2021/03/14 05:17:08;;;;;;;26.93;5.00;;;5.10;88.90;;;;;;5078325;28;20182;-87
2021/03/14 05:19:37;;;;;;;18.87;4.90;;;5.10;88.90;;;;;;5078241;28;20612;-88
2021/03/14 05:22:03;;;;;;;20.00;4.23;;;5.10;88.60;;;;;;5078161;28;20178;-87
2021/03/14 05:24:40;;;;;;;30.53;6.27;;;5.00;88.20;;;;;;5078250;28;20177;-88
2021/03/14 05:27:14;;;;;;;15.67;4.53;;;5.10;87.90;;;;;;5096247;28;20170;-87
2021/03/14 05:29:46;;;;;;;17.37;3.97;;;5.00;87.50;;;;;;5078146;28;20223;-87
2021/03/14 05:32:17;;;;;;;20.20;4.57;;;5.00;87.30;;;;;;5096143;28;20188;-87
2021/03/14 05:34:48;;;;;;;23.00;5.17;;;5.00;87.40;;;;;;5077950;28;20560;-87
2021/03/14 05:37:21;;;;;;;21.07;4.87;;;4.90;87.70;;;;;;5096077;28;20196;-87
2021/03/14 05:39:51;;;;;;;14.03;4.50;;;4.90;88.20;;;;;;5096386;28;20634;-88
2021/03/14 05:42:26;;;;;;;14.73;3.77;;;5.00;88.40;;;;;;5077863;28;20295;-87
2021/03/14 05:44:56;;;;;;;29.73;5.47;;;5.00;89.20;;;;;;5095966;28;20176;-87
2021/03/14 05:47:31;;;;;;;25.20;5.20;;;5.10;89.50;;;;;;5078173;28;20206;-88
2021/03/14 05:50:00;;;;;;;26.70;5.37;;;5.00;89.80;;;;;;5095973;28;20250;-87
2021/03/14 05:52:27;;;;;;;25.20;4.40;;;5.00;89.80;;;;;;5077197;28;20198;-88
2021/03/14 05:54:54;;;;;;;32.40;4.53;;;5.00;89.80;;;;;;5095006;28;20169;-88
2021/03/14 05:57:28;;;;;;;22.77;5.53;;;5.00;89.80;;;;;;5077597;28;20174;-88
2021/03/14 06:00:01;;;;;;;25.00;4.67;;;5.00;90.00;;;;;;5077623;28;20171;-88
2021/03/14 06:02:39;;;;;;;28.63;5.10;;;5.00;90.00;;;;;;5095812;28;20195;-87
2021/03/14 06:05:12;;;;;;;25.93;3.80;;;5.00;90.00;;;;;;5077502;28;20166;-87
2021/03/14 06:07:44;;;;;;;18.23;4.13;;;5.00;90.10;;;;;;5077292;28;20300;-87
2021/03/14 06:10:16;;;;;;;19.57;3.63;;;5.00;90.30;;;;;;5095460;28;20175;-88
2021/03/14 06:12:46;;;;;;;19.33;4.13;;;5.00;90.30;;;;;;5077350;28;20217;-88
2021/03/14 06:15:21;;;;;;;24.63;4.20;;;5.00;90.50;;;;;;5077225;28;20185;-88
2021/03/14 06:17:54;;;;;;;19.77;4.20;;;5.00;90.30;;;;;;5077203;28;20182;-87
2021/03/14 06:20:46;;;;;;;24.43;4.33;;;4.90;90.40;;;;;;5095279;28;20591;-87
2021/03/14 06:23:14;;;;;;;18.13;3.00;;;4.90;90.40;;;;;;5095186;28;20242;-88
2021/03/14 06:25:48;;;;;;;28.57;4.63;;;4.90;90.40;;;;;;5077353;28;20217;-87
2021/03/14 06:28:31;;;;;;;16.23;3.93;;;4.90;90.40;;;;;;5076871;28;20202;-88
2021/03/14 06:31:21;;;;;;;24.73;4.30;;;4.80;90.50;;;;;;5076888;28;20234;-88
2021/03/14 06:33:55;;;;;;;21.70;4.90;;;4.80;90.40;;;;;;5077050;28;20229;-88
2021/03/14 06:36:33;;;;;;;21.03;3.90;;;4.80;90.50;;;;;;5076900;28;20269;-88
2021/03/14 06:39:01;;;;;;;28.03;4.90;;;4.70;90.50;;;;;;5077215;28;20178;-88
2021/03/14 06:41:37;;;;;;;33.80;5.50;;;4.80;90.70;;;;;;5077001;28;20189;-88
2021/03/14 06:44:27;;;;;;;26.97;3.83;;;4.80;90.80;;;;;;5076897;28;20205;-88
2021/03/14 06:47:01;;;;;;;17.67;3.83;;;4.80;90.70;;;;;;5076541;28;20178;-89
2021/03/14 06:49:41;;;;;;;27.10;5.07;;;4.80;90.90;;;;;;5076602;28;20266;-88
2021/03/14 06:52:12;;;;;;;22.97;4.37;;;4.80;91.10;;;;;;5076882;28;20194;-88
2021/03/14 06:54:47;;;;;;;21.83;4.23;;;4.80;91.00;;;;;;5076941;28;20178;-87
2021/03/14 06:57:20;;;;;;;28.70;5.10;;;4.80;90.90;;;;;;5076459;28;20253;-87
2021/03/14 06:59:59;;;;;;;21.83;4.23;;;4.80;91.00;;;;;;5094520;28;20287;-87
2021/03/14 07:02:34;;;;;;;21.80;4.27;;;4.80;91.20;;;;;;5094540;28;20200;-88
2021/03/14 07:05:07;;;;;;;19.03;3.80;;;4.80;91.20;;;;;;5076086;28;20212;-88
2021/03/14 07:07:43;;;;;;;20.90;3.77;;;4.80;91.10;;;;;;5094379;28;20206;-89
2021/03/14 07:10:15;;;;;;;23.67;3.70;;;4.80;91.20;;;;;;5076484;28;20656;-88
2021/03/14 07:12:44;;;;;;;26.53;4.40;;;4.80;91.40;;;;;;5075875;28;20220;-88
2021/03/14 07:15:23;;;;;;;18.90;4.03;;;4.90;91.40;;;;;;5094241;28;20188;-88
2021/03/14 07:18:04;;;;;;;19.10;4.47;;;5.00;91.50;;;;;;5076378;28;20177;-88
2021/03/14 07:20:35;;;;;;;25.00;4.77;;;5.00;91.50;;;;;;5094195;28;20234;-88
2021/03/14 07:23:11;;;;;;;22.80;5.33;;;5.10;91.40;;;;;;5075928;28;20194;-88
2021/03/14 07:25:46;;;;;;;20.60;4.47;;;5.20;91.40;;;;;;5075908;28;20184;-89
2021/03/14 07:28:19;;;;;;;24.67;4.57;;;5.30;91.20;;;;;;5075716;28;20706;-89
2021/03/14 07:30:51;;;;;;;27.50;5.53;;;5.30;91.20;;;;;;5075819;28;20225;-90
2021/03/14 07:33:27;;;;;;;25.47;4.83;;;5.30;91.10;;;;;;5075804;28;20205;-89
2021/03/14 07:36:01;;;;;;;21.10;5.53;;;5.40;91.10;;;;;;5076014;28;20171;-89
2021/03/14 07:38:31;;;;;;;26.33;4.47;;;5.50;91.20;;;;;;5076591;28;20571;-89
2021/03/14 07:41:01;;;;;;;26.60;4.67;;;5.60;90.70;;;;;;5076130;28;20601;-89
2021/03/14 07:43:34;;;;;;;18.10;4.27;;;5.60;90.90;;;;;;5075627;28;20666;-90
2021/03/14 07:46:07;;;;;;;19.13;4.33;;;5.60;90.30;;;;;;5075628;28;20185;-89
2021/03/14 07:48:39;;;;;;;15.93;4.57;;;5.70;90.10;;;;;;5093877;28;20214;-89
2021/03/14 07:51:11;;;;;;;31.93;4.87;;;5.60;90.40;;;;;;5075887;28;20574;-89
2021/03/14 07:53:38;;;;;;;14.87;4.37;;;5.60;90.30;;;;;;5075482;28;20293;-89
2021/03/14 07:56:11;;;;;;;33.20;4.60;;;5.60;90.10;;;;;;5075492;28;20178;-88
2021/03/14 07:58:43;;;;;;;27.47;4.60;;;5.50;90.30;;;;;;5075961;28;20552;-88
2021/03/14 08:01:27;;;;;;;22.10;4.33;;;5.50;89.90;;;;;;5075369;28;20185;-89
2021/03/14 08:04:01;;;;;;;28.60;5.00;;;5.50;90.40;;;;;;5075332;28;20193;-89
2021/03/14 08:06:49;;;;;;;31.23;4.63;;;5.60;90.40;;;;;;5075421;28;20544;-89
2021/03/14 08:09:43;;;;;;;18.67;3.47;;;5.80;90.20;;;;;;5075218;28;20194;-89
2021/03/14 08:12:20;;;;;;;22.13;4.47;;;5.90;90.10;;;;;;5075357;28;20261;-89
2021/03/14 08:14:59;;;;;;;15.23;2.47;;;5.90;89.30;;;;;;5075699;28;20177;-89
2021/03/14 08:17:37;;;;;;;18.30;3.40;;;5.90;88.90;;;;;;5080479;28;20174;-89
2021/03/14 08:20:07;;;;;;;11.13;2.90;;;6.00;88.30;;;;;;5081993;28;20359;-89
2021/03/14 08:22:44;;;;;;;13.57;3.37;;;6.00;88.30;;;;;;5081777;28;20211;-89
2021/03/14 08:25:23;;;;;;;21.57;3.90;;;6.00;88.50;;;;;;5082770;28;20607;-88
2021/03/14 08:28:01;;;;;;;14.33;3.00;;;6.20;88.50;;;;;;5081762;28;20206;-87
2021/03/14 08:30:34;;;;;;;26.90;4.40;;;6.30;87.80;;;;;;5082384;28;20214;-89
2021/03/14 08:33:22;;;;;;;16.70;3.43;;;6.30;88.10;;;;;;5081710;28;20678;-88
2021/03/14 08:35:57;;;;;;;14.20;3.20;;;6.30;87.60;;;;;;5081821;28;20172;-89
2021/03/14 08:38:36;;;;;;;25.03;3.83;;;6.30;87.60;;;;;;5081639;28;20202;-89
2021/03/14 08:41:22;;;;;;;13.00;3.33;;;6.30;87.80;;;;;;5082053;28;20279;-89
2021/03/14 08:43:52;;;;;;;18.57;3.37;;;6.30;87.40;;;;;;5081696;28;20294;-89
2021/03/14 08:46:41;;;;;;;17.37;3.07;;;6.40;87.30;;;;;;5081961;28;20269;-89
2021/03/14 08:49:11;;;;;;;23.17;3.57;;;6.40;87.50;;;;;;5081293;28;20295;-88
2021/03/14 08:51:41;;;;;;;10.33;2.13;;;6.40;87.60;;;;;;5081635;28;20256;-89
2021/03/14 08:54:17;;;;;;;12.30;2.60;;;6.70;87.80;;;;;;5081613;28;20195;-88
2021/03/14 08:56:48;;;;;;;15.13;3.47;;;6.70;85.10;;;;;;5081645;28;20624;-88
2021/03/14 08:59:22;;;;;;;14.13;3.60;;;6.70;86.20;;;;;;5081544;28;20172;-87
2021/03/14 09:01:54;;;;;;;17.17;2.90;;;6.70;85.90;;;;;;5081774;28;20260;-88
2021/03/14 09:04:36;;;;;;;16.37;2.77;;;6.80;86.10;;;;;;5081627;28;20213;-89
2021/03/14 09:07:11;;;;;;;11.97;3.30;;;6.80;85.90;;;;;;5081414;28;20177;-89
2021/03/14 09:09:45;;;;;;;22.70;3.10;;;6.80;86.20;;;;;;5099937;28;20169;-89
2021/03/14 09:12:19;;;;;;;23.97;3.63;;;6.80;86.50;;;;;;5081771;28;20739;-89
2021/03/14 09:14:52;;;;;;;17.97;3.00;;;6.90;85.90;;;;;;5099580;28;20170;-88
2021/03/14 09:17:26;;;;;;;12.07;2.83;;;6.90;85.50;;;;;;5081443;28;20184;-88
2021/03/14 09:19:56;;;;;;;13.57;3.07;;;6.80;84.40;;;;;;5081666;28;20176;-87
2021/03/14 09:22:28;;;;;;;20.00;3.33;;;6.80;85.30;;;;;;5099466;28;20218;-87
2021/03/14 09:25:05;;;;;;;18.70;3.50;;;6.90;85.50;;;;;;5081947;28;20206;-87
2021/03/14 09:27:36;;;;;;;20.13;2.93;;;7.00;86.10;;;;;;5080401;28;20207;-87
2021/03/14 09:30:12;;;;;;;19.47;3.17;;;7.10;86.10;;;;;;5078068;28;20184;-88
2021/03/14 09:32:50;;;;;;;19.50;3.80;;;7.30;85.80;;;;;;5096285;28;20688;-88
2021/03/14 09:35:39;;;;;;;22.00;3.43;;;7.50;85.40;;;;;;5078071;28;20170;-88
2021/03/14 09:38:16;;;;;;;13.23;3.27;;;7.50;84.00;;;;;;5096288;28;20166;-88
2021/03/14 09:40:51;;;;;;;18.23;3.20;;;7.40;83.40;;;;;;5096042;28;20185;-87
2021/03/14 09:43:29;;;;;;;21.03;3.50;;;7.30;83.70;;;;;;5077821;28;20200;-87
2021/03/14 09:46:06;;;;;;;23.83;2.93;;;7.30;83.10;;;;;;5078410;28;20611;-87
2021/03/14 09:48:34;;;;;;;21.83;3.50;;;7.30;84.80;;;;;;5078498;28;20196;-87
2021/03/14 09:51:09;;;;;;;23.90;3.50;;;7.20;85.10;;;;;;5077583;28;20177;-88
2021/03/14 09:53:46;;;;;;;15.93;3.17;;;7.00;84.90;;;;;;5077596;28;20775;-88
2021/03/14 09:56:14;;;;;;;18.43;3.63;;;7.10;85.60;;;;;;5095821;28;20213;-88
2021/03/14 09:58:42;;;;;;;22.27;3.63;;;7.20;86.00;;;;;;5095749;28;20215;-88
2021/03/14 10:01:11;;;;;;;24.47;3.43;;;7.20;85.20;;;;;;5077432;28;20215;-89
2021/03/14 10:03:41;;;;;;;11.83;2.83;;;7.30;84.20;;;;;;5077655;28;20674;-89
2021/03/14 10:06:10;;;;;;;13.33;2.83;;;7.30;84.10;;;;;;5095540;28;20267;-88
2021/03/14 10:08:46;;;;;;;13.97;2.70;;;7.50;84.20;;;;;;5077660;28;20288;-88
2021/03/14 10:11:21;;;;;;;17.47;3.00;;;7.60;83.20;;;;;;5077431;28;20169;-88
2021/03/14 10:13:57;;;;;;;26.13;4.10;;;7.40;84.30;;;;;;5077214;28;20685;-88
2021/03/14 10:16:30;;;;;;;13.43;2.93;;;7.20;86.10;;;;;;5095509;28;20178;-88
2021/03/14 10:19:05;;;;;;;14.67;2.97;;;7.00;85.90;;;;;;5077266;28;20173;-88
2021/03/14 10:21:43;;;;;;;15.17;3.97;;;6.80;86.80;;;;;;5095275;28;20226;-89
2021/03/14 10:24:22;;;;;;;15.53;3.00;;;6.80;86.90;;;;;;5077073;28;20283;-88
2021/03/14 10:27:04;;;;;;;18.03;3.57;;;6.80;87.40;;;;;;5076996;28;20223;-89
2021/03/14 10:29:36;;;;;;;14.43;2.30;;;6.90;88.70;;;;;;5077056;28;20181;-89
2021/03/14 10:32:27;;;;;;;13.07;2.57;;;6.90;86.40;;;;;;5077174;28;20176;-89
2021/03/14 10:35:05;;;;;;;16.00;3.77;;;6.70;87.10;;;;;;5077758;28;20524;-89
2021/03/14 10:37:36;;;;;;;14.53;2.93;;;6.60;88.10;;;;;;5077131;28;20173;-89
2021/03/14 10:40:12;;;;;;;16.40;3.27;;;6.60;88.60;;;;;;5094407;28;20174;-89
2021/03/14 10:42:48;;;;;;;14.13;3.87;;;6.60;88.50;;;;;;5094831;28;20199;-89
2021/03/14 10:45:26;;;;;;;16.67;3.10;;;6.50;89.20;;;;;;5076733;28;20177;-88
2021/03/14 10:48:07;;;;;;;11.37;2.63;;;6.60;88.80;;;;;;5094775;28;20610;-89
2021/03/14 10:50:36;;;;;;;14.43;3.00;;;6.70;88.70;;;;;;5076518;28;20227;-89
2021/03/14 10:53:19;;;;;;;12.57;2.90;;;6.70;88.20;;;;;;5076539;28;20195;-88
2021/03/14 10:56:06;;;;;;;14.70;2.73;;;6.80;88.60;;;;;;5076793;28;20171;-89
2021/03/14 10:58:49;;;;;;;19.43;2.63;;;6.90;87.60;;;;;;5076483;28;20172;-89
2021/03/14 11:01:31;;;;;;;6.97;2.10;;;6.90;86.90;;;;;;5076640;28;20234;-88
2021/03/14 11:04:11;;;;;;;17.33;3.27;;;7.10;87.00;;;;;;5095140;28;20242;-89
2021/03/14 11:06:43;;;;;;;14.10;2.77;;;7.30;87.20;;;;;;5076314;28;20168;-89
2021/03/14 11:09:22;;;;;;;13.23;2.97;;;7.40;86.20;;;;;;5076454;28;20205;-89
2021/03/14 11:11:56;;;;;;;22.83;3.00;;;7.70;86.90;;;;;;5076397;28;20694;-88
2021/03/14 11:14:38;;;;;;;18.23;2.60;;;8.00;87.00;;;;;;5076365;28;20189;-88
2021/03/14 11:17:16;;;;;;;16.63;2.77;;;8.20;85.90;;;;;;5076072;28;20223;-88
2021/03/14 11:19:48;;;;;;;9.33;2.17;;;8.00;84.70;;;;;;5094136;28;20527;-88
2021/03/14 11:22:23;;;;;;;13.93;2.87;;;8.20;85.10;;;;;;5094289;28;20187;-87
2021/03/14 11:24:51;;;;;;;14.03;2.87;;;8.00;83.60;;;;;;5075916;28;20549;-87
2021/03/14 11:27:19;;;;;;;12.20;2.90;;;7.90;83.30;;;;;;5075856;28;20261;-86
2021/03/14 11:29:51;;;;;;;16.50;3.07;;;7.70;82.80;;;;;;5094321;28;20196;-87
2021/03/14 11:32:26;;;;;;;16.47;2.87;;;7.60;83.80;;;;;;5075745;28;20247;-87
2021/03/14 11:34:58;;;;;;;11.87;2.30;;;7.60;83.00;;;;;;5075619;28;20181;-87
2021/03/14 11:37:36;;;;;;;20.13;3.23;;;7.50;82.50;;;;;;5093909;28;20185;-87
2021/03/14 11:40:04;;;;;;;20.27;4.10;;;7.70;84.00;;;;;;5075691;28;20201;-87
2021/03/14 11:42:30;;;;;;;21.63;3.00;;;8.00;83.20;;;;;;5094041;28;20285;-89
2021/03/14 11:44:56;;;;;;;20.97;2.83;;;8.00;83.10;;;;;;5075786;28;20319;-89
2021/03/14 11:47:22;;;;;;;17.67;2.87;;;8.10;82.70;;;;;;5075618;28;20188;-88
2021/03/14 11:49:48;;;;;;;23.40;3.80;;;7.90;81.30;;;;;;5075677;28;20174;-88
2021/03/14 11:52:14;;;;;;;16.07;3.43;;;7.90;81.40;;;;;;5092900;28;20198;-87
2021/03/14 11:54:40;;;;;;;17.77;3.40;;;8.00;81.30;;;;;;5093706;28;20178;-88
2021/03/14 11:57:06;;;;;;;13.47;3.37;;;8.20;82.60;;;;;;5075469;28;20175;-87
2021/03/14 11:59:31;;;;;;;10.13;2.30;;;8.30;81.90;;;;;;5093623;28;20170;-87
2021/03/14 12:01:57;;;;;;;11.17;2.67;;;8.30;81.20;;;;;;5075320;28;20257;-88
2021/03/14 12:04:23;;;;;;;21.07;3.03;;;8.30;80.80;;;;;;5075722;28;20174;-86
2021/03/14 12:06:49;;;;;;;14.37;2.83;;;8.20;80.30;;;;;;5093679;28;20547;-88
2021/03/14 12:09:15;;;;;;;6.27;1.70;;;8.40;81.50;;;;;;5075348;28;20209;-87
2021/03/14 12:11:41;;;;;;;10.40;2.57;;;8.30;78.60;;;;;;5093422;28;20170;-88
2021/03/14 12:14:07;;;;;;;11.40;2.23;;;8.50;79.50;;;;;;5093218;28;20202;-87
2021/03/14 12:16:33;;;;;;;13.13;2.60;;;8.80;78.90;;;;;;5075376;28;20175;-88
2021/03/14 12:18:59;;;;;;;10.40;2.70;;;8.80;79.40;;;;;;5075430;28;20556;-88
2021/03/14 12:21:25;;;;;;;14.40;2.80;;;8.60;75.60;;;;;;5093351;28;20182;-88
2021/03/14 12:23:50;;;;;;;15.37;2.97;;;8.40;78.50;;;;;;5075587;28;20194;-87
2021/03/14 12:26:16;;;;;;;18.90;2.93;;;8.50;79.80;;;;;;5075551;28;20727;-88
2021/03/14 12:28:42;;;;;;;15.33;2.60;;;8.70;78.40;;;;;;5075064;28;20548;-88
2021/03/14 12:31:08;;;;;;;10.73;2.27;;;8.70;78.70;;;;;;5075121;28;20182;-88
2021/03/14 12:33:34;;;;;;;12.90;2.20;;;8.60;77.80;;;;;;5075035;28;20191;-88
2021/03/14 12:35:59;;;;;;;13.23;2.40;;;8.30;77.00;;;;;;5093222;28;20175;-87
2021/03/14 12:38:25;;;;;;;6.97;1.93;;;8.10;75.70;;;;;;5093199;28;20182;-88
2021/03/14 12:40:53;;;;;;;10.80;2.37;;;7.80;75.30;;;;;;5093157;28;20167;-88
2021/03/14 12:43:26;;;;;;;13.57;2.60;;;8.00;76.60;;;;;;5093022;28;20209;-88
2021/03/14 12:46:03;;;;;;;17.17;3.07;;;8.50;77.40;;;;;;5091582;28;20195;-88
2021/03/14 12:48:31;;;;;;;7.23;2.17;;;8.80;76.90;;;;;;5075416;28;20670;-87
2021/03/14 12:50:57;;;;;;;19.73;3.00;;;8.80;76.60;;;;;;5075298;28;20210;-87
2021/03/14 12:53:24;;;;;;;16.37;2.40;;;9.00;76.80;;;;;;5074912;28;20202;-87
2021/03/14 12:55:50;;;;;;;15.43;2.23;;;9.20;74.50;;;;;;5075211;28;20580;-87
2021/03/14 12:58:21;;;;;;;10.83;2.37;;;9.40;74.20;;;;;;5074896;28;20179;-86
2021/03/14 13:00:51;;;;;;;15.07;2.73;;;9.50;74.90;;;;;;5075174;28;20183;-87
2021/03/14 13:03:21;;;;;;;16.40;2.90;;;9.80;74.60;;;;;;5078487;28;20547;-87
2021/03/14 13:05:48;;;;;;;12.43;2.73;;;9.90;75.10;;;;;;5079354;28;20526;-86
2021/03/14 13:08:15;;;;;;;12.23;2.17;;;9.90;71.10;;;;;;5078533;28;20202;-86
2021/03/14 13:10:46;;;;;;;13.03;2.30;;;9.50;69.80;;;;;;5078464;28;20223;-87
2021/03/14 13:13:14;;;;;;;13.07;2.57;;;9.20;71.00;;;;;;5078638;28;20210;-86
2021/03/14 13:15:42;;;;;;;10.53;2.50;;;9.30;73.80;;;;;;5078392;28;20707;-86
2021/03/14 13:18:11;;;;;;;9.60;2.60;;;9.30;71.40;;;;;;5078649;28;20317;-86